Time;durP1;ratioP1;P1;durP2;ratioP2;P2;SDS_P1;SDS_P2;PMS_P1;PMS_P2;Temp;Humidity;BMP_temperature;BMP_pressure;BME280_temperature;BME280_humidity;BME280_pressure;Samples;Min_cycle;Max_cycle;Signal;HPM_P1;HPM_P2
2023/04/03 00:00:31;;;;;;;;;;;2.60;99.90;;;;;;8256656;28;19972;-80
2023/04/03 00:04:31;;;;;;;;;;;2.50;99.90;;;;;;8261620;28;19910;-79
2023/04/03 00:08:32;;;;;;;;;;;2.40;99.90;;;;;;8253908;28;19917;-79
2023/04/03 00:12:33;;;;;;;;;;;2.40;99.90;;;;;;8262045;28;19905;-80
2023/04/03 00:16:33;;;;;;;;;;;2.40;99.90;;;;;;8259353;28;19906;-80
2023/04/03 00:20:34;;;;;;;;;;;2.30;99.90;;;;;;8262374;28;19913;-81
2023/04/03 00:24:34;;;;;;;;;;;2.20;99.90;;;;;;8252129;28;19909;-79
2023/04/03 00:28:35;;;;;;;;;;;2.20;99.90;;;;;;8248982;28;20405;-79
2023/04/03 00:32:35;;;;;;;;;;;2.20;99.90;;;;;;8245916;28;19963;-79
2023/04/03 00:36:36;;;;;;;;;;;2.10;99.90;;;;;;8258708;28;19913;-80
2023/04/03 00:40:38;;;;;;;;;;;2.00;99.90;;;;;;8259762;28;19917;-80
2023/04/03 00:44:38;;;;;;;;;;;2.00;99.90;;;;;;8252370;28;19921;-80
2023/04/03 00:48:44;;;;;;;;;;;1.90;99.90;;;;;;8246152;28;19905;-79
2023/04/03 00:52:46;;;;;;;;;;;1.80;99.90;;;;;;8260547;28;19906;-78
2023/04/03 00:56:47;;;;;;;;;;;1.80;99.90;;;;;;8257330;28;19913;-79
2023/04/03 01:00:53;;;;;;;;;;;1.70;99.90;;;;;;8260485;28;19933;-79
2023/04/03 01:04:54;;;;;;;;;;;1.70;99.90;;;;;;8245350;28;19945;-79
2023/04/03 01:08:55;;;;;;;;;;;1.70;99.90;;;;;;8250564;28;19905;-79
2023/04/03 01:12:55;;;;;;;;;;;1.70;99.90;;;;;;8265693;28;20367;-78
2023/04/03 01:16:56;;;;;;;;;;;1.70;99.90;;;;;;8253854;28;20384;-79
2023/04/03 01:21:15;;;;;;;;;;;1.80;99.90;;;;;;8262887;28;19910;-79
2023/04/03 01:25:15;;;;;;;;;;;1.80;99.90;;;;;;8253534;28;19975;-79
2023/04/03 01:29:16;;;;;;;;;;;1.80;99.90;;;;;;8252846;28;19984;-78
2023/04/03 01:33:16;;;;;;;;;;;1.70;99.90;;;;;;8255720;28;20446;-78
2023/04/03 01:37:17;;;;;;;;;;;1.70;99.90;;;;;;8251251;28;19913;-78
2023/04/03 01:41:17;;;;;;;;;;;1.70;99.90;;;;;;8257854;28;19909;-80
2023/04/03 01:45:18;;;;;;;;;;;1.60;99.90;;;;;;8263808;28;20008;-78
2023/04/03 01:49:18;;;;;;;;;;;1.60;99.90;;;;;;8263897;28;19952;-79
2023/04/03 01:53:19;;;;;;;;;;;1.50;99.90;;;;;;8265518;28;19905;-79
2023/04/03 01:57:19;;;;;;;;;;;1.60;99.90;;;;;;8255808;28;19918;-79
2023/04/03 02:01:20;;;;;;;;;;;1.60;99.90;;;;;;8250763;28;19909;-78
2023/04/03 02:05:21;;;;;;;;;;;1.70;99.90;;;;;;8250327;28;19964;-79
2023/04/03 02:09:21;;;;;;;;;;;1.80;99.90;;;;;;8255010;28;20370;-80
2023/04/03 02:13:22;;;;;;;;;;;1.80;99.90;;;;;;8254828;28;20370;-79
2023/04/03 02:17:22;;;;;;;;;;;1.70;99.90;;;;;;8254231;28;19905;-79
2023/04/03 02:21:23;;;;;;;;;;;1.70;99.90;;;;;;8264533;28;19912;-78
2023/04/03 02:25:23;;;;;;;;;;;1.70;99.90;;;;;;8260416;28;19914;-79
2023/04/03 02:29:24;;;;;;;;;;;1.60;99.90;;;;;;8262050;28;19905;-78
2023/04/03 02:33:24;;;;;;;;;;;1.70;99.90;;;;;;8244430;28;20009;-79
2023/04/03 02:37:25;;;;;;;;;;;1.60;99.90;;;;;;8260498;28;19914;-78
2023/04/03 02:41:31;;;;;;;;;;;1.60;99.90;;;;;;8257476;28;19914;-77
2023/04/03 02:45:32;;;;;;;;;;;1.60;99.90;;;;;;8261988;28;19918;-79
2023/04/03 02:49:33;;;;;;;;;;;1.70;99.90;;;;;;8244759;28;19997;-80
2023/04/03 02:53:33;;;;;;;;;;;1.60;99.90;;;;;;8257193;28;19922;-79
2023/04/03 02:57:33;;;;;;;;;;;1.60;99.90;;;;;;8261136;28;20306;-79
2023/04/03 03:01:34;;;;;;;;;;;1.60;99.90;;;;;;8256562;28;20005;-79
2023/04/03 03:05:35;;;;;;;;;;;1.60;99.90;;;;;;8247318;28;20519;-80
2023/04/03 03:09:36;;;;;;;;;;;1.80;99.90;;;;;;8248478;28;20396;-78
2023/04/03 03:13:37;;;;;;;;;;;1.80;99.90;;;;;;8261902;28;19920;-79
2023/04/03 03:17:37;;;;;;;;;;;1.70;99.90;;;;;;8248087;28;19914;-80
2023/04/03 03:21:38;;;;;;;;;;;1.70;99.90;;;;;;8246756;28;19917;-80
2023/04/03 03:25:39;;;;;;;;;;;1.80;99.90;;;;;;8239114;28;19953;-79
2023/04/03 03:29:39;;;;;;;;;;;1.80;99.90;;;;;;8243403;28;19913;-80
2023/04/03 03:33:40;;;;;;;;;;;1.80;99.90;;;;;;8257406;28;20321;-80
2023/04/03 03:37:41;;;;;;;;;;;1.80;99.90;;;;;;8259183;28;19906;-80
2023/04/03 03:41:41;;;;;;;;;;;1.70;99.90;;;;;;8251418;28;19905;-80
2023/04/03 03:45:42;;;;;;;;;;;1.80;99.90;;;;;;8252149;28;20542;-80
2023/04/03 03:49:42;;;;;;;;;;;1.80;99.90;;;;;;8248905;28;20271;-80
2023/04/03 03:53:43;;;;;;;;;;;1.70;99.90;;;;;;8246914;28;19912;-80
2023/04/03 03:57:43;;;;;;;;;;;1.70;99.90;;;;;;8259326;28;19922;-81
2023/04/03 04:01:44;;;;;;;;;;;1.80;99.90;;;;;;8260762;28;19959;-80
2023/04/03 04:05:44;;;;;;;;;;;1.70;99.90;;;;;;8260767;28;19906;-80
2023/04/03 04:09:45;;;;;;;;;;;1.70;99.90;;;;;;8262424;28;19965;-81
2023/04/03 04:13:46;;;;;;;;;;;1.70;99.90;;;;;;8250711;28;19971;-80
2023/04/03 04:17:46;;;;;;;;;;;1.60;99.90;;;;;;8248248;28;19924;-80
2023/04/03 04:21:46;;;;;;;;;;;1.70;99.90;;;;;;8260705;28;19981;-80
2023/04/03 04:25:47;;;;;;;;;;;1.80;99.90;;;;;;8258513;28;20314;-80
2023/04/03 04:29:48;;;;;;;;;;;1.70;99.90;;;;;;8255423;28;19932;-81
2023/04/03 04:33:48;;;;;;;;;;;1.80;99.90;;;;;;8252302;28;19912;-80
2023/04/03 04:37:49;;;;;;;;;;;1.80;99.90;;;;;;8248880;28;19917;-80
2023/04/03 04:41:50;;;;;;;;;;;1.70;99.90;;;;;;8250370;28;19921;-81
2023/04/03 04:46:00;;;;;;;;;;;1.70;99.90;;;;;;8241264;28;19909;-80
2023/04/03 04:50:00;;;;;;;;;;;1.70;99.90;;;;;;8255249;28;19914;-81
2023/04/03 04:54:01;;;;;;;;;;;1.70;99.90;;;;;;8235765;28;19910;-80
2023/04/03 04:58:01;;;;;;;;;;;1.60;99.90;;;;;;8250220;28;19914;-80
2023/04/03 05:02:02;;;;;;;;;;;1.70;99.90;;;;;;8238535;28;19983;-80
2023/04/03 05:06:03;;;;;;;;;;;1.70;99.90;;;;;;8249968;28;20497;-80
2023/04/03 05:10:03;;;;;;;;;;;1.70;99.90;;;;;;8242541;28;19910;-80
2023/04/03 05:14:06;;;;;;;;;;;1.80;99.90;;;;;;8254702;28;20394;-80
2023/04/03 05:18:06;;;;;;;;;;;1.80;99.90;;;;;;8243509;28;19910;-80
2023/04/03 05:22:07;;;;;;;;;;;1.80;99.90;;;;;;8249974;28;19918;-80
2023/04/03 05:26:07;;;;;;;;;;;1.90;99.90;;;;;;8244070;28;20004;-80
2023/04/03 05:30:08;;;;;;;;;;;1.90;99.90;;;;;;8260241;28;19999;-79
2023/04/03 05:34:09;;;;;;;;;;;1.80;99.90;;;;;;8247614;28;19980;-81
2023/04/03 05:38:09;;;;;;;;;;;1.80;99.90;;;;;;8249737;28;20207;-80
2023/04/03 05:42:11;;;;;;;;;;;1.80;99.90;;;;;;8242692;28;20413;-81
2023/04/03 05:46:12;;;;;;;;;;;1.80;99.90;;;;;;8246404;28;19913;-80
2023/04/03 05:50:13;;;;;;;;;;;1.80;99.90;;;;;;8249246;28;19906;-80
2023/04/03 05:54:15;;;;;;;;;;;1.80;99.90;;;;;;8255575;28;19913;-80
2023/04/03 05:58:16;;;;;;;;;;;1.90;99.90;;;;;;8262483;28;19913;-79
2023/04/03 06:02:20;;;;;;;;;;;1.80;99.90;;;;;;8255067;28;19964;-79
2023/04/03 06:06:21;;;;;;;;;;;1.90;99.90;;;;;;8241420;28;20000;-80
2023/04/03 06:10:22;;;;;;;;;;;1.90;99.90;;;;;;8240341;28;19910;-80
2023/04/03 06:14:23;;;;;;;;;;;1.90;99.90;;;;;;8241710;28;20072;-79
2023/04/03 06:18:23;;;;;;;;;;;2.00;99.90;;;;;;8236388;28;19912;-78
2023/04/03 06:22:25;;;;;;;;;;;2.00;99.90;;;;;;8254847;28;20164;-79
2023/04/03 06:26:27;;;;;;;;;;;2.10;99.90;;;;;;8254262;28;19918;-80
2023/04/03 06:30:27;;;;;;;;;;;2.10;99.90;;;;;;8257283;28;19941;-80
2023/04/03 06:34:28;;;;;;;;;;;2.30;99.90;;;;;;8257191;28;20300;-79
2023/04/03 06:38:28;;;;;;;;;;;2.30;99.90;;;;;;8247174;28;19972;-80
2023/04/03 06:42:28;;;;;;;;;;;2.20;99.90;;;;;;8260447;28;19916;-80
2023/04/03 06:46:29;;;;;;;;;;;2.20;99.90;;;;;;8248882;28;19932;-80
2023/04/03 06:50:29;;;;;;;;;;;2.30;99.90;;;;;;8260378;28;19917;-79
2023/04/03 06:54:30;;;;;;;;;;;2.30;99.90;;;;;;8244760;28;19910;-79
2023/04/03 06:58:30;;;;;;;;;;;2.40;99.90;;;;;;8263169;28;19924;-80
2023/04/03 07:02:31;;;;;;;;;;;2.40;99.90;;;;;;8241244;28;19945;-80
2023/04/03 07:06:33;;;;;;;;;;;2.50;99.90;;;;;;8253893;28;19917;-79
2023/04/03 07:10:33;;;;;;;;;;;2.40;99.90;;;;;;8253064;28;20247;-79
2023/04/03 07:14:34;;;;;;;;;;;2.40;99.90;;;;;;8249296;28;19988;-79
2023/04/03 07:18:34;;;;;;;;;;;2.40;99.90;;;;;;8234927;28;19961;-79
2023/04/03 07:22:35;;;;;;;;;;;2.50;99.90;;;;;;8247304;28;19917;-78
2023/04/03 07:26:36;;;;;;;;;;;2.60;99.90;;;;;;8244690;28;19913;-79
2023/04/03 07:30:42;;;;;;;;;;;2.60;99.90;;;;;;8240610;28;19956;-78
2023/04/03 07:34:43;;;;;;;;;;;2.70;99.90;;;;;;8251894;28;20416;-79
2023/04/03 07:38:44;;;;;;;;;;;2.80;99.90;;;;;;8248591;28;19916;-79
2023/04/03 07:42:45;;;;;;;;;;;2.70;99.90;;;;;;8263212;28;19909;-79
2023/04/03 07:46:46;;;;;;;;;;;2.70;99.90;;;;;;8252266;28;19909;-79
2023/04/03 07:50:47;;;;;;;;;;;2.60;99.90;;;;;;8260668;28;19906;-80
2023/04/03 07:54:47;;;;;;;;;;;2.80;99.90;;;;;;8249526;28;19918;-78
2023/04/03 07:58:48;;;;;;;;;;;2.90;99.90;;;;;;8252102;28;19959;-78
2023/04/03 08:02:50;;;;;;;;;;;3.10;99.90;;;;;;8249075;28;19914;-79
2023/04/03 08:06:50;;;;;;;;;;;3.20;99.90;;;;;;8253032;28;19957;-80
2023/04/03 08:10:52;;;;;;;;;;;3.30;99.90;;;;;;8250924;28;19933;-79
2023/04/03 08:14:52;;;;;;;;;;;3.40;99.90;;;;;;8231328;28;20305;-79
2023/04/03 08:18:53;;;;;;;;;;;3.60;99.90;;;;;;8247430;28;20133;-79
2023/04/03 08:22:54;;;;;;;;;;;3.70;99.90;;;;;;8241679;28;20008;-78
2023/04/03 08:26:55;;;;;;;;;;;3.80;99.90;;;;;;8253504;28;19917;-80
2023/04/03 08:30:55;;;;;;;;;;;4.00;99.90;;;;;;8253929;28;19910;-79
2023/04/03 08:34:56;;;;;;;;;;;4.00;99.90;;;;;;8257011;28;19916;-79
2023/04/03 08:38:57;;;;;;;;;;;3.90;99.90;;;;;;8256242;28;19908;-78
2023/04/03 08:43:00;;;;;;;;;;;3.70;99.90;;;;;;8261342;28;19910;-77
2023/04/03 08:47:04;;;;;;;;;;;3.70;99.90;;;;;;8249272;28;19960;-79
2023/04/03 08:51:11;;;;;;;;;;;4.20;99.90;;;;;;8243049;28;19912;-78
2023/04/03 08:55:15;;;;;;;;;;;4.50;99.90;;;;;;8247104;28;19914;-79
2023/04/03 08:59:19;;;;;;;;;;;4.70;99.90;;;;;;8249696;28;19905;-79
2023/04/03 09:03:20;;;;;;;;;;;5.10;99.90;;;;;;8238350;28;20436;-79
2023/04/03 09:07:38;;;;;;;;;;;4.80;99.90;;;;;;8244589;28;20381;-78
2023/04/03 09:11:38;;;;;;;;;;;4.80;99.90;;;;;;8236440;28;20341;-79
2023/04/03 09:15:39;;;;;;;;;;;4.90;99.90;;;;;;8234853;28;19988;-78
2023/04/03 09:19:51;;;;;;;;;;;5.20;99.90;;;;;;8234953;28;19910;-78
2023/04/03 09:23:53;;;;;;;;;;;5.70;99.90;;;;;;8230950;28;19917;-78
2023/04/03 09:27:53;;;;;;;;;;;5.20;99.90;;;;;;8239623;28;19960;-78
2023/04/03 09:32:00;;;;;;;;;;;4.70;99.90;;;;;;8240001;28;20339;-78
2023/04/03 09:36:01;;;;;;;;;;;4.40;99.90;;;;;;8245276;28;19910;-78
2023/04/03 09:40:04;;;;;;;;;;;4.60;99.90;;;;;;8254590;28;20286;-78
2023/04/03 09:44:19;;;;;;;;;;;4.70;99.90;;;;;;8247164;28;19914;-78
2023/04/03 09:48:24;;;;;;;;;;;4.90;99.90;;;;;;8251910;28;19906;-78
2023/04/03 09:52:26;;;;;;;;;;;5.00;99.90;;;;;;8240176;28;19925;-78
2023/04/03 09:56:28;;;;;;;;;;;4.90;99.90;;;;;;8241161;28;20386;-79
2023/04/03 10:00:34;;;;;;;;;;;5.10;99.90;;;;;;8236154;28;19906;-78
2023/04/03 10:04:41;;;;;;;;;;;5.20;99.90;;;;;;8240624;28;19910;-78
2023/04/03 10:08:41;;;;;;;;;;;5.10;99.90;;;;;;8251967;28;19910;-78
2023/04/03 10:12:41;;;;;;;;;;;5.30;99.90;;;;;;8240991;28;20437;-79
2023/04/03 10:16:46;;;;;;;;;;;5.60;99.90;;;;;;8238442;28;19916;-78
2023/04/03 10:20:49;;;;;;;;;;;5.70;99.90;;;;;;8238258;28;20001;-79
2023/04/03 10:25:02;;;;;;;;;;;5.80;99.90;;;;;;8230540;28;19961;-78
2023/04/03 10:29:27;;;;;;;;;;;5.80;99.90;;;;;;8249877;28;19910;-79
2023/04/03 10:33:32;;;;;;;;;;;5.90;99.90;;;;;;8242521;28;19916;-78
2023/04/03 10:37:53;;;;;;;;;;;5.70;99.90;;;;;;8243985;28;20386;-78
2023/04/03 10:42:13;;;;;;;;;;;5.30;99.90;;;;;;8236450;28;19910;-78
2023/04/03 10:46:18;;;;;;;;;;;5.20;99.90;;;;;;8252749;28;19973;-77
2023/04/03 10:50:25;;;;;;;;;;;5.50;99.90;;;;;;8253328;28;19953;-77
2023/04/03 10:54:35;;;;;;;;;;;5.50;99.90;;;;;;8250858;28;19909;-79
2023/04/03 10:58:38;;;;;;;;;;;5.30;99.90;;;;;;8248525;28;19978;-77
2023/04/03 11:02:48;;;;;;;;;;;5.70;99.90;;;;;;8246974;28;20207;-79
2023/04/03 11:06:51;;;;;;;;;;;5.80;99.90;;;;;;8235983;28;19913;-79
2023/04/03 11:10:54;;;;;;;;;;;5.80;99.90;;;;;;8244788;28;19941;-78
2023/04/03 11:14:56;;;;;;;;;;;5.80;99.90;;;;;;8247138;28;19913;-77
2023/04/03 11:18:59;;;;;;;;;;;5.40;99.90;;;;;;8252047;28;20552;-78
2023/04/03 11:23:18;;;;;;;;;;;5.10;99.90;;;;;;8258281;28;19914;-79
2023/04/03 11:27:22;;;;;;;;;;;5.00;99.90;;;;;;8246662;28;19910;-78
2023/04/03 11:31:38;;;;;;;;;;;4.70;99.90;;;;;;8251823;28;19906;-79
2023/04/03 11:35:42;;;;;;;;;;;4.90;99.90;;;;;;8243154;28;19917;-79
2023/04/03 11:39:49;;;;;;;;;;;5.30;99.90;;;;;;8260770;28;19916;-79
2023/04/03 11:44:00;;;;;;;;;;;5.10;99.90;;;;;;8249522;28;19921;-78
2023/04/03 11:48:04;;;;;;;;;;;4.80;99.90;;;;;;8232540;28;20420;-78
2023/04/03 11:52:09;;;;;;;;;;;5.00;99.90;;;;;;8233947;28;19910;-78
2023/04/03 11:56:30;;;;;;;;;;;5.20;99.90;;;;;;8243244;28;19996;-77
2023/04/03 12:00:52;;;;;;;;;;;5.20;99.90;;;;;;8242377;28;20401;-78
2023/04/03 12:05:13;;;;;;;;;;;5.10;99.90;;;;;;8248987;28;19936;-78
2023/04/03 12:09:22;;;;;;;;;;;5.00;99.90;;;;;;8254013;28;19917;-78
2023/04/03 12:13:23;;;;;;;;;;;5.20;99.90;;;;;;8251927;28;20000;-79
2023/04/03 12:17:26;;;;;;;;;;;5.10;99.90;;;;;;8242173;28;19942;-79
2023/04/03 12:21:26;;;;;;;;;;;5.20;99.90;;;;;;8240053;28;19924;-78
2023/04/03 12:25:49;;;;;;;;;;;5.60;99.90;;;;;;8250956;28;19956;-78
2023/04/03 12:29:52;;;;;;;;;;;5.90;99.90;;;;;;8236019;28;19967;-77
2023/04/03 12:33:57;;;;;;;;;;;6.10;99.90;;;;;;8251442;28;19909;-78
2023/04/03 12:38:08;;;;;;;;;;;6.00;99.90;;;;;;8286765;23;19933;-79
2023/04/03 12:42:31;;;;;;;;;;;6.30;99.90;;;;;;8292498;28;20004;-80
2023/04/03 12:46:37;;;;;;;;;;;6.60;99.90;;;;;;8265746;28;20333;-81
2023/04/03 12:50:40;;;;;;;;;;;6.70;99.90;;;;;;8294682;28;20020;-80
2023/04/03 12:54:41;;;;;;;;;;;6.70;99.90;;;;;;8276863;28;20362;-81
2023/04/03 12:58:41;;;;;;;;;;;6.60;99.90;;;;;;8289789;28;19917;-80
2023/04/03 13:02:44;;;;;;;;;;;6.50;99.90;;;;;;8284358;28;19960;-80
2023/04/03 13:06:45;;;;;;;;;;;6.90;99.90;;;;;;8276521;28;19905;-80
2023/04/03 13:10:52;;;;;;;;;;;6.20;99.90;;;;;;8276458;28;20066;-81
2023/04/03 13:14:54;;;;;;;;;;;6.00;99.90;;;;;;8274573;28;20717;-79
2023/04/03 13:18:54;;;;;;;;;;;6.40;99.90;;;;;;8275161;28;19905;-80
2023/04/03 13:23:01;;;;;;;;;;;5.90;99.90;;;;;;8276393;28;20385;-80
2023/04/03 13:27:01;;;;;;;;;;;5.70;99.90;;;;;;8276323;28;19906;-81
2023/04/03 13:31:05;;;;;;;;;;;5.70;99.90;;;;;;8293641;28;19992;-80
2023/04/03 13:35:24;;;;;;;;;;;5.80;99.90;;;;;;8276804;28;19909;-80
2023/04/03 13:39:32;;;;;;;;;;;5.90;99.90;;;;;;8275427;28;19914;-80
2023/04/03 13:43:34;;;;;;;;;;;5.80;99.90;;;;;;8293853;28;19937;-80
2023/04/03 13:47:39;;;;;;;;;;;5.90;99.90;;;;;;8277019;28;19947;-80
2023/04/03 13:51:39;;;;;;;;;;;5.80;99.90;;;;;;8293624;28;19940;-81
2023/04/03 13:56:04;;;;;;;;;;;6.00;99.90;;;;;;8276577;28;19909;-82
2023/04/03 14:00:40;;;;;;;;;;;5.70;99.90;;;;;;8277948;28;20278;-82
2023/04/03 14:04:47;;;;;;;;;;;5.80;99.90;;;;;;8235637;28;19944;-83
2023/04/03 14:08:48;;;;;;;;;;;6.10;99.90;;;;;;8275806;28;20064;-82
2023/04/03 14:12:50;;;;;;;;;;;5.90;99.90;;;;;;8282474;28;20543;-83
2023/04/03 14:16:53;;;;;;;;;;;5.10;99.90;;;;;;8285081;28;19909;-82
2023/04/03 14:20:53;;;;;;;;;;;4.80;99.90;;;;;;8284816;28;19960;-82
2023/04/03 14:24:54;;;;;;;;;;;5.00;99.90;;;;;;8285112;28;19912;-82
2023/04/03 14:28:55;;;;;;;;;;;5.10;99.90;;;;;;8300389;28;19916;-82
2023/04/03 14:32:55;;;;;;;;;;;5.50;99.90;;;;;;8284304;28;19909;-82
2023/04/03 14:36:56;;;;;;;;;;;5.60;99.90;;;;;;8283320;28;19917;-81
2023/04/03 14:40:57;;;;;;;;;;;5.70;99.90;;;;;;8284468;28;19920;-81
2023/04/03 14:44:58;;;;;;;;;;;5.60;99.90;;;;;;8287639;28;20345;-81
2023/04/03 14:48:59;;;;;;;;;;;5.60;99.90;;;;;;8282421;28;20312;-81
2023/04/03 14:52:59;;;;;;;;;;;5.50;99.90;;;;;;8300527;28;19909;-81
2023/04/03 14:57:00;;;;;;;;;;;7.50;99.90;;;;;;8283339;28;19905;-81
2023/04/03 15:01:00;;;;;;;;;;;7.30;99.90;;;;;;8283042;28;19916;-81
2023/04/03 15:05:03;;;;;;;;;;;6.50;99.90;;;;;;8283167;28;19913;-81
2023/04/03 15:09:04;;;;;;;;;;;5.70;99.90;;;;;;8299430;28;19932;-82
2023/04/03 15:13:05;;;;;;;;;;;5.30;99.90;;;;;;8299980;28;19949;-81
2023/04/03 15:17:05;;;;;;;;;;;5.30;99.90;;;;;;8281245;28;19909;-81
2023/04/03 15:21:06;;;;;;;;;;;5.50;99.90;;;;;;8282154;28;19909;-82
2023/04/03 15:25:07;;;;;;;;;;;6.10;99.90;;;;;;8298804;28;19917;-82
2023/04/03 15:29:07;;;;;;;;;;;6.00;99.90;;;;;;8282938;28;19991;-82
2023/04/03 15:33:08;;;;;;;;;;;5.90;99.90;;;;;;8300123;28;19920;-82
2023/04/03 15:37:08;;;;;;;;;;;5.40;99.90;;;;;;8280532;28;19953;-83
2023/04/03 15:41:12;;;;;;;;;;;5.40;99.90;;;;;;8282336;28;19909;-81
2023/04/03 15:45:12;;;;;;;;;;;5.50;99.90;;;;;;8283109;28;19991;-81
2023/04/03 15:49:13;;;;;;;;;;;5.40;99.90;;;;;;8283091;28;19909;-81
2023/04/03 15:53:13;;;;;;;;;;;5.40;99.90;;;;;;8301452;28;19913;-82
2023/04/03 15:57:14;;;;;;;;;;;5.10;99.90;;;;;;8302464;28;19905;-80
2023/04/03 16:01:16;;;;;;;;;;;4.70;99.90;;;;;;8300944;28;19910;-89
2023/04/03 16:05:18;;;;;;;;;;;4.50;99.90;;;;;;8293078;28;19968;-88
2023/04/03 16:09:18;;;;;;;;;;;4.30;99.90;;;;;;8294803;28;20187;-88
2023/04/03 16:13:19;;;;;;;;;;;4.40;99.90;;;;;;8297903;28;19920;-88
2023/04/03 16:17:19;;;;;;;;;;;4.40;99.90;;;;;;8298992;28;19937;-88
2023/04/03 16:21:20;;;;;;;;;;;4.60;99.90;;;;;;8289882;28;19909;-82
2023/04/03 16:25:20;;;;;;;;;;;4.60;99.90;;;;;;8279062;28;19909;-82
2023/04/03 16:29:21;;;;;;;;;;;4.70;99.90;;;;;;8268778;28;19924;-81
2023/04/03 16:33:21;;;;;;;;;;;4.60;99.90;;;;;;8300227;28;19936;-82
2023/04/03 16:37:22;;;;;;;;;;;4.40;99.90;;;;;;8257213;28;1021430;-81
2023/04/03 16:41:22;;;;;;;;;;;4.10;99.90;;;;;;8282138;28;19913;-80
2023/04/03 16:45:23;;;;;;;;;;;4.00;99.90;;;;;;8294173;28;19897;-79
2023/04/03 16:49:23;;;;;;;;;;;4.10;99.90;;;;;;8281122;28;20027;-80
2023/04/03 16:53:24;;;;;;;;;;;4.40;99.90;;;;;;8274373;28;19917;-81
2023/04/03 16:57:25;;;;;;;;;;;4.40;99.90;;;;;;8287309;28;20365;-81
2023/04/03 17:01:25;;;;;;;;;;;4.20;99.90;;;;;;8294454;28;19910;-81
2023/04/03 17:13:47;;;;;;;;;;;3.90;99.90;;;;;;8252458;28;19928;-78
2023/04/03 17:17:49;;;;;;;;;;;3.80;99.90;;;;;;8242008;28;19996;-81
2023/04/03 17:21:52;;;;;;;;;;;3.60;99.90;;;;;;8242781;28;20008;-80
2023/04/03 17:25:54;;;;;;;;;;;3.50;99.90;;;;;;8255831;28;19918;-81
2023/04/03 17:29:54;;;;;;;;;;;3.40;99.90;;;;;;8243664;28;20405;-81
2023/04/03 17:33:54;;;;;;;;;;;3.40;99.90;;;;;;8243201;28;19917;-81
2023/04/03 17:37:55;;;;;;;;;;;3.30;99.90;;;;;;8244796;28;19914;-80
2023/04/03 17:41:56;;;;;;;;;;;3.30;99.90;;;;;;8243275;28;19941;-80
2023/04/03 17:46:02;;;;;;;;;;;3.20;99.90;;;;;;8250594;28;19910;-81
2023/04/03 17:50:03;;;;;;;;;;;3.30;99.90;;;;;;8250665;28;19914;-81
2023/04/03 17:54:03;;;;;;;;;;;3.20;99.90;;;;;;8251321;28;20371;-81
2023/04/03 17:58:04;;;;;;;;;;;3.00;99.90;;;;;;8258709;28;19913;-81
2023/04/03 18:02:04;;;;;;;;;;;3.00;99.90;;;;;;8248029;28;19925;-81
2023/04/03 18:06:06;;;;;;;;;;;2.90;99.90;;;;;;8251993;28;19957;-81
2023/04/03 18:10:07;;;;;;;;;;;2.70;99.90;;;;;;8253449;28;19909;-81
2023/04/03 18:14:08;;;;;;;;;;;2.60;99.90;;;;;;8273663;28;20000;-82
2023/04/03 18:18:11;;;;;;;;;;;2.50;99.90;;;;;;8248147;28;19921;-86
2023/04/03 18:22:13;;;;;;;;;;;2.40;99.90;;;;;;8250089;28;19914;-78
2023/04/03 18:26:14;;;;;;;;;;;2.20;99.90;;;;;;8248330;28;19910;-79
2023/04/03 18:30:16;;;;;;;;;;;2.10;99.90;;;;;;8250775;28;19916;-80
2023/04/03 18:34:16;;;;;;;;;;;2.00;99.90;;;;;;8239468;28;20353;-80
2023/04/03 18:38:17;;;;;;;;;;;1.70;99.90;;;;;;8248572;28;19956;-81
2023/04/03 18:42:20;;;;;;;;;;;1.30;99.90;;;;;;8267629;28;20293;-80
2023/04/03 18:46:20;;;;;;;;;;;1.00;99.90;;;;;;8250064;28;19916;-80
2023/04/03 18:50:21;;;;;;;;;;;0.90;99.90;;;;;;8261775;28;19909;-81
2023/04/03 18:54:21;;;;;;;;;;;0.60;99.90;;;;;;8262792;28;19914;-80
2023/04/03 18:58:22;;;;;;;;;;;0.30;99.90;;;;;;8265694;28;19910;-80
2023/04/03 19:02:24;;;;;;;;;;;0.10;99.90;;;;;;8247587;28;19916;-80
2023/04/03 19:06:25;;;;;;;;;;;0.10;99.90;;;;;;8262782;28;19925;-80
2023/04/03 19:10:26;;;;;;;;;;;0.00;99.90;;;;;;8259237;28;19957;-80
2023/04/03 19:14:26;;;;;;;;;;;-0.10;99.90;;;;;;8258830;28;19922;-80
2023/04/03 19:18:27;;;;;;;;;;;-0.20;99.90;;;;;;8243025;28;20450;-80
2023/04/03 19:22:27;;;;;;;;;;;-0.40;99.90;;;;;;8247143;28;19918;-80
2023/04/03 19:26:29;;;;;;;;;;;-0.40;99.90;;;;;;8237466;28;19933;-80
2023/04/03 19:30:30;;;;;;;;;;;-0.60;99.90;;;;;;8243566;28;19917;-81
2023/04/03 19:34:31;;;;;;;;;;;-0.60;99.90;;;;;;8242298;28;19960;-81
2023/04/03 19:38:34;;;;;;;;;;;-0.60;99.90;;;;;;8264062;28;19910;-81
2023/04/03 19:42:39;;;;;;;;;;;-0.50;99.90;;;;;;8251885;28;19917;-80
2023/04/03 19:46:39;;;;;;;;;;;-0.60;99.90;;;;;;8247602;28;19910;-80
2023/04/03 19:50:39;;;;;;;;;;;-0.80;99.90;;;;;;8247772;28;19918;-81
2023/04/03 19:54:40;;;;;;;;;;;-0.80;99.90;;;;;;8244572;28;19921;-81
2023/04/03 19:58:41;;;;;;;;;;;-1.10;99.90;;;;;;8264397;28;19910;-81
2023/04/03 20:02:41;;;;;;;;;;;-1.40;99.90;;;;;;8247735;28;19948;-81
2023/04/03 20:06:42;;;;;;;;;;;-1.00;99.90;;;;;;8248514;28;19916;-81
2023/04/03 20:10:42;;;;;;;;;;;-0.90;99.90;;;;;;8274679;28;19941;-81
2023/04/03 20:14:45;;;;;;;;;;;-0.90;99.90;;;;;;8247374;28;19921;-81
2023/04/03 20:18:46;;;;;;;;;;;-1.20;99.90;;;;;;8247402;28;19949;-81
2023/04/03 20:22:47;;;;;;;;;;;-0.90;99.90;;;;;;8289302;23;20020;-80
2023/04/03 20:26:48;;;;;;;;;;;-1.00;99.90;;;;;;8253537;28;19912;-80
2023/04/03 20:30:54;;;;;;;;;;;-1.00;99.90;;;;;;8259026;28;20286;-80
2023/04/03 20:34:56;;;;;;;;;;;-1.00;99.90;;;;;;8281828;28;19955;-80
2023/04/03 20:38:56;;;;;;;;;;;-1.10;99.90;;;;;;8265710;28;19938;-80
2023/04/03 20:42:57;;;;;;;;;;;-1.00;99.90;;;;;;8274867;28;20317;-80
2023/04/03 20:46:57;;;;;;;;;;;-0.90;99.90;;;;;;8280742;28;19960;-80
2023/04/03 20:50:58;;;;;;;;;;;-1.30;99.90;;;;;;8280445;28;19909;-80
2023/04/03 20:54:59;;;;;;;;;;;-1.50;99.90;;;;;;8268823;28;20004;-80
2023/04/03 20:59:03;;;;;;;;;;;-1.30;99.90;;;;;;8264373;28;19906;-80
2023/04/03 21:03:04;;;;;;;;;;;-1.20;99.90;;;;;;8270990;28;19933;-81
2023/04/03 21:07:23;;;;;;;;;;;-1.30;99.90;;;;;;8279122;28;19913;-80
2023/04/03 21:11:43;;;;;;;;;;;-1.50;99.90;;;;;;8301344;28;20370;-79
2023/04/03 21:15:46;;;;;;;;;;;-1.50;99.90;;;;;;8277859;28;19909;-80
2023/04/03 21:19:47;;;;;;;;;;;-1.60;99.90;;;;;;8274940;28;20255;-80
2023/04/03 21:23:48;;;;;;;;;;;-1.60;99.90;;;;;;8285398;28;19963;-80
2023/04/03 21:27:51;;;;;;;;;;;-1.60;99.90;;;;;;8277389;28;20378;-80
2023/04/03 21:31:52;;;;;;;;;;;-1.70;99.90;;;;;;8284663;28;20538;-80
2023/04/03 21:35:57;;;;;;;;;;;-1.80;99.90;;;;;;8282597;28;20878;-80
2023/04/03 21:39:57;;;;;;;;;;;-2.10;99.90;;;;;;8285798;28;19910;-79
2023/04/03 21:43:58;;;;;;;;;;;-2.30;99.90;;;;;;8283175;28;19933;-80
2023/04/03 21:47:59;;;;;;;;;;;-2.30;99.90;;;;;;8290537;28;19916;-78
2023/04/03 21:51:59;;;;;;;;;;;-2.00;99.90;;;;;;8293315;28;19999;-79
2023/04/03 21:56:01;;;;;;;;;;;-1.80;99.90;;;;;;8280701;28;19967;-79
2023/04/03 22:00:03;;;;;;;;;;;-1.70;99.90;;;;;;8285883;28;19909;-79
2023/04/03 22:04:03;;;;;;;;;;;-1.50;99.90;;;;;;8278207;28;19905;-80
2023/04/03 22:08:06;;;;;;;;;;;-1.40;99.90;;;;;;8280985;28;19960;-79
2023/04/03 22:12:10;;;;;;;;;;;-1.20;99.90;;;;;;8291262;28;19905;-78
2023/04/03 22:16:11;;;;;;;;;;;-1.10;99.90;;;;;;8285971;28;20362;-78
2023/04/03 22:20:12;;;;;;;;;;;-1.10;99.90;;;;;;8279440;28;19910;-79
2023/04/03 22:24:13;;;;;;;;;;;-1.00;99.90;;;;;;8295922;28;20292;-80
2023/04/03 22:28:15;;;;;;;;;;;-0.90;99.90;;;;;;8286909;28;19913;-79
2023/04/03 22:32:15;;;;;;;;;;;-0.80;99.90;;;;;;8290281;28;20326;-80
2023/04/03 22:36:16;;;;;;;;;;;-0.80;99.90;;;;;;8278490;28;19914;-79
2023/04/03 22:40:17;;;;;;;;;;;-0.90;99.90;;;;;;8285113;28;20389;-80
2023/04/03 22:44:17;;;;;;;;;;;-1.00;99.90;;;;;;8266385;28;19913;-80
2023/04/03 22:48:18;;;;;;;;;;;-0.90;99.90;;;;;;8288453;28;20296;-79
2023/04/03 22:52:18;;;;;;;;;;;-0.90;99.90;;;;;;8276779;28;19909;-79
2023/04/03 22:56:20;;;;;;;;;;;-1.00;99.90;;;;;;8269620;28;19960;-80
2023/04/03 23:00:21;;;;;;;;;;;-1.10;99.90;;;;;;8265875;28;19909;-80
2023/04/03 23:04:21;;;;;;;;;;;-1.10;99.90;;;;;;8276138;28;19912;-79
2023/04/03 23:08:22;;;;;;;;;;;-1.00;99.90;;;;;;8279599;28;19905;-80
2023/04/03 23:12:22;;;;;;;;;;;-1.00;99.90;;;;;;8276279;28;19905;-79
2023/04/03 23:16:23;;;;;;;;;;;-0.90;99.90;;;;;;8281332;28;20509;-80
2023/04/03 23:20:25;;;;;;;;;;;-1.00;99.90;;;;;;8280516;28;19914;-80
2023/04/03 23:24:25;;;;;;;;;;;-1.00;99.90;;;;;;8270444;28;19905;-79
2023/04/03 23:28:26;;;;;;;;;;;-1.00;99.90;;;;;;8285834;28;19913;-80
2023/04/03 23:32:28;;;;;;;;;;;-1.20;99.90;;;;;;8281758;28;19925;-80
2023/04/03 23:36:29;;;;;;;;;;;-1.30;99.90;;;;;;8277640;28;19912;-79
2023/04/03 23:40:30;;;;;;;;;;;-1.10;99.90;;;;;;8283059;28;19916;-80
2023/04/03 23:44:30;;;;;;;;;;;-1.10;99.90;;;;;;8271181;28;20374;-79
2023/04/03 23:48:31;;;;;;;;;;;-1.20;99.90;;;;;;8278280;28;20417;-79
2023/04/03 23:52:32;;;;;;;;;;;-1.20;99.90;;;;;;8280474;28;20279;-79